sensor_id;sensor_type;location;lat;lon;timestamp;temperature;humidity
62998;DHT22;55949;52.590;7.330;2023-09-30T00:00:24;14.80;99.90
62998;DHT22;55949;52.590;7.330;2023-09-30T00:01:25;14.70;99.90
62998;DHT22;55949;52.590;7.330;2023-09-30T00:02:27;14.70;99.90
62998;DHT22;55949;52.590;7.330;2023-09-30T00:03:28;14.70;99.90
62998;DHT22;55949;52.590;7.330;2023-09-30T00:04:28;14.70;99.90
62998;DHT22;55949;52.590;7.330;2023-09-30T00:05:30;14.70;99.90
62998;DHT22;55949;52.590;7.330;2023-09-30T00:06:30;14.80;99.90
62998;DHT22;55949;52.590;7.330;2023-09-30T00:07:31;14.80;99.90
62998;DHT22;55949;52.590;7.330;2023-09-30T00:08:32;14.60;99.90
62998;DHT22;55949;52.590;7.330;2023-09-30T00:09:32;14.50;99.90
62998;DHT22;55949;52.590;7.330;2023-09-30T00:10:33;14.60;99.90
62998;DHT22;55949;52.590;7.330;2023-09-30T00:11:34;14.70;99.90
62998;DHT22;55949;52.590;7.330;2023-09-30T00:12:35;14.70;99.90
62998;DHT22;55949;52.590;7.330;2023-09-30T00:13:36;14.90;99.90
62998;DHT22;55949;52.590;7.330;2023-09-30T00:14:36;14.70;99.90
62998;DHT22;55949;52.590;7.330;2023-09-30T00:15:38;14.80;99.90
62998;DHT22;55949;52.590;7.330;2023-09-30T00:16:39;14.80;99.90
62998;DHT22;55949;52.590;7.330;2023-09-30T00:17:39;14.80;99.90
62998;DHT22;55949;52.590;7.330;2023-09-30T00:18:40;14.80;99.90
62998;DHT22;55949;52.590;7.330;2023-09-30T00:19:41;14.80;99.90
62998;DHT22;55949;52.590;7.330;2023-09-30T00:20:42;14.70;99.90
62998;DHT22;55949;52.590;7.330;2023-09-30T00:21:43;14.60;99.90
62998;DHT22;55949;52.590;7.330;2023-09-30T00:22:43;14.70;99.90
62998;DHT22;55949;52.590;7.330;2023-09-30T00:23:44;14.70;99.90
62998;DHT22;55949;52.590;7.330;2023-09-30T00:24:45;14.70;99.90
62998;DHT22;55949;52.590;7.330;2023-09-30T00:25:45;14.60;99.90
62998;DHT22;55949;52.590;7.330;2023-09-30T00:26:46;14.60;99.90
62998;DHT22;55949;52.590;7.330;2023-09-30T00:27:48;14.70;99.90
62998;DHT22;55949;52.590;7.330;2023-09-30T00:28:49;14.60;99.90
62998;DHT22;55949;52.590;7.330;2023-09-30T00:29:49;14.60;99.90
62998;DHT22;55949;52.590;7.330;2023-09-30T00:30:50;14.60;99.90
62998;DHT22;55949;52.590;7.330;2023-09-30T00:31:51;14.70;99.90
62998;DHT22;55949;52.590;7.330;2023-09-30T00:32:51;14.60;99.90
62998;DHT22;55949;52.590;7.330;2023-09-30T00:33:52;14.60;99.90
62998;DHT22;55949;52.590;7.330;2023-09-30T00:34:53;14.70;99.90
62998;DHT22;55949;52.590;7.330;2023-09-30T00:35:54;14.70;99.90
62998;DHT22;55949;52.590;7.330;2023-09-30T00:36:54;14.80;99.90
62998;DHT22;55949;52.590;7.330;2023-09-30T00:37:55;14.80;99.90
62998;DHT22;55949;52.590;7.330;2023-09-30T00:38:56;14.90;99.90
62998;DHT22;55949;52.590;7.330;2023-09-30T00:39:56;14.90;99.90
62998;DHT22;55949;52.590;7.330;2023-09-30T00:40:57;15.00;99.90
62998;DHT22;55949;52.590;7.330;2023-09-30T00:41:58;15.00;99.90
62998;DHT22;55949;52.590;7.330;2023-09-30T00:42:59;15.00;99.90
62998;DHT22;55949;52.590;7.330;2023-09-30T00:43:59;15.10;99.90
62998;DHT22;55949;52.590;7.330;2023-09-30T00:45:01;15.20;99.90
62998;DHT22;55949;52.590;7.330;2023-09-30T00:47:05;15.50;99.90
62998;DHT22;55949;52.590;7.330;2023-09-30T00:48:06;15.50;99.90
62998;DHT22;55949;52.590;7.330;2023-09-30T00:49:07;15.50;99.90
62998;DHT22;55949;52.590;7.330;2023-09-30T00:50:08;15.40;99.90
62998;DHT22;55949;52.590;7.330;2023-09-30T00:51:11;15.40;99.90
62998;DHT22;55949;52.590;7.330;2023-09-30T00:52:12;15.30;99.90
62998;DHT22;55949;52.590;7.330;2023-09-30T00:53:13;15.30;99.90
62998;DHT22;55949;52.590;7.330;2023-09-30T00:54:14;15.40;99.90
62998;DHT22;55949;52.590;7.330;2023-09-30T00:55:15;15.20;99.90
62998;DHT22;55949;52.590;7.330;2023-09-30T00:56:17;15.20;99.90
62998;DHT22;55949;52.590;7.330;2023-09-30T00:57:20;15.20;99.90
62998;DHT22;55949;52.590;7.330;2023-09-30T00:58:21;15.10;99.90
62998;DHT22;55949;52.590;7.330;2023-09-30T00:59:22;15.30;99.90
62998;DHT22;55949;52.590;7.330;2023-09-30T01:00:23;15.30;99.90
62998;DHT22;55949;52.590;7.330;2023-09-30T01:01:26;15.40;99.90
62998;DHT22;55949;52.590;7.330;2023-09-30T01:02:26;15.50;99.90
62998;DHT22;55949;52.590;7.330;2023-09-30T01:03:27;15.50;99.90
62998;DHT22;55949;52.590;7.330;2023-09-30T01:04:28;15.40;99.90
62998;DHT22;55949;52.590;7.330;2023-09-30T01:05:29;15.40;99.90
62998;DHT22;55949;52.590;7.330;2023-09-30T01:06:30;15.50;99.90
62998;DHT22;55949;52.590;7.330;2023-09-30T01:07:31;15.50;99.90
62998;DHT22;55949;52.590;7.330;2023-09-30T01:08:32;15.50;99.90
62998;DHT22;55949;52.590;7.330;2023-09-30T01:09:34;15.60;99.90
62998;DHT22;55949;52.590;7.330;2023-09-30T01:10:37;15.60;99.90
62998;DHT22;55949;52.590;7.330;2023-09-30T01:11:37;15.60;99.90
62998;DHT22;55949;52.590;7.330;2023-09-30T01:12:40;15.50;99.90
62998;DHT22;55949;52.590;7.330;2023-09-30T01:13:41;15.50;99.90
62998;DHT22;55949;52.590;7.330;2023-09-30T01:14:43;15.50;99.90
62998;DHT22;55949;52.590;7.330;2023-09-30T01:15:44;15.50;99.90
62998;DHT22;55949;52.590;7.330;2023-09-30T01:16:47;15.40;99.90
62998;DHT22;55949;52.590;7.330;2023-09-30T01:17:48;15.40;99.90
62998;DHT22;55949;52.590;7.330;2023-09-30T01:18:49;15.50;99.90
62998;DHT22;55949;52.590;7.330;2023-09-30T01:19:50;15.50;99.90
62998;DHT22;55949;52.590;7.330;2023-09-30T01:20:53;15.50;99.90
62998;DHT22;55949;52.590;7.330;2023-09-30T01:21:55;15.50;99.90
62998;DHT22;55949;52.590;7.330;2023-09-30T01:22:59;15.60;99.90
62998;DHT22;55949;52.590;7.330;2023-09-30T01:24:01;15.40;99.90
62998;DHT22;55949;52.590;7.330;2023-09-30T01:25:01;15.40;99.90
62998;DHT22;55949;52.590;7.330;2023-09-30T01:26:10;15.30;99.90
62998;DHT22;55949;52.590;7.330;2023-09-30T01:27:12;15.20;99.90
62998;DHT22;55949;52.590;7.330;2023-09-30T01:28:13;15.30;99.90
62998;DHT22;55949;52.590;7.330;2023-09-30T01:29:15;15.10;99.90
62998;DHT22;55949;52.590;7.330;2023-09-30T01:30:15;15.00;99.90
62998;DHT22;55949;52.590;7.330;2023-09-30T01:31:16;15.00;99.90
62998;DHT22;55949;52.590;7.330;2023-09-30T01:32:17;15.10;99.90
62998;DHT22;55949;52.590;7.330;2023-09-30T01:33:17;15.20;99.90
62998;DHT22;55949;52.590;7.330;2023-09-30T01:34:19;15.10;99.90
62998;DHT22;55949;52.590;7.330;2023-09-30T01:35:20;15.00;99.90
62998;DHT22;55949;52.590;7.330;2023-09-30T01:36:22;15.00;99.90
62998;DHT22;55949;52.590;7.330;2023-09-30T01:37:27;14.90;99.90
62998;DHT22;55949;52.590;7.330;2023-09-30T01:38:28;15.00;99.90
62998;DHT22;55949;52.590;7.330;2023-09-30T01:39:29;15.10;99.90
62998;DHT22;55949;52.590;7.330;2023-09-30T01:40:33;15.00;99.90
62998;DHT22;55949;52.590;7.330;2023-09-30T01:41:33;14.70;99.90
62998;DHT22;55949;52.590;7.330;2023-09-30T01:42:34;14.80;99.90
62998;DHT22;55949;52.590;7.330;2023-09-30T01:43:35;14.90;99.90
62998;DHT22;55949;52.590;7.330;2023-09-30T01:44:36;14.80;99.90
62998;DHT22;55949;52.590;7.330;2023-09-30T01:45:37;14.80;99.90
62998;DHT22;55949;52.590;7.330;2023-09-30T01:46:38;14.80;99.90
62998;DHT22;55949;52.590;7.330;2023-09-30T01:47:38;14.90;99.90
62998;DHT22;55949;52.590;7.330;2023-09-30T01:48:39;14.90;99.90
62998;DHT22;55949;52.590;7.330;2023-09-30T01:49:40;15.00;99.90
62998;DHT22;55949;52.590;7.330;2023-09-30T01:50:40;15.00;99.90
62998;DHT22;55949;52.590;7.330;2023-09-30T01:51:41;15.10;99.90
62998;DHT22;55949;52.590;7.330;2023-09-30T01:52:42;15.00;99.90
62998;DHT22;55949;52.590;7.330;2023-09-30T01:53:43;15.00;99.90
62998;DHT22;55949;52.590;7.330;2023-09-30T01:54:44;15.00;99.90
62998;DHT22;55949;52.590;7.330;2023-09-30T01:55:44;14.70;99.90
62998;DHT22;55949;52.590;7.330;2023-09-30T01:56:45;14.70;99.90
62998;DHT22;55949;52.590;7.330;2023-09-30T01:57:46;14.80;99.90
62998;DHT22;55949;52.590;7.330;2023-09-30T01:58:46;14.80;99.90
62998;DHT22;55949;52.590;7.330;2023-09-30T01:59:47;14.80;99.90
62998;DHT22;55949;52.590;7.330;2023-09-30T02:00:48;14.60;99.90
62998;DHT22;55949;52.590;7.330;2023-09-30T02:01:49;14.60;99.90
62998;DHT22;55949;52.590;7.330;2023-09-30T02:02:50;14.50;99.90
62998;DHT22;55949;52.590;7.330;2023-09-30T02:03:50;14.40;99.90
62998;DHT22;55949;52.590;7.330;2023-09-30T02:04:51;14.50;99.90
62998;DHT22;55949;52.590;7.330;2023-09-30T02:05:53;14.40;99.90
62998;DHT22;55949;52.590;7.330;2023-09-30T02:06:54;14.50;99.90
62998;DHT22;55949;52.590;7.330;2023-09-30T02:07:55;14.60;99.90
62998;DHT22;55949;52.590;7.330;2023-09-30T02:08:55;14.50;99.90
62998;DHT22;55949;52.590;7.330;2023-09-30T02:09:57;14.60;99.90
62998;DHT22;55949;52.590;7.330;2023-09-30T02:10:58;14.70;99.90
62998;DHT22;55949;52.590;7.330;2023-09-30T02:11:58;14.60;99.90
62998;DHT22;55949;52.590;7.330;2023-09-30T02:12:59;14.50;99.90
62998;DHT22;55949;52.590;7.330;2023-09-30T02:14:01;14.60;99.90
62998;DHT22;55949;52.590;7.330;2023-09-30T02:15:03;14.60;99.90
62998;DHT22;55949;52.590;7.330;2023-09-30T02:16:04;14.80;99.90
62998;DHT22;55949;52.590;7.330;2023-09-30T02:17:05;14.90;99.90
62998;DHT22;55949;52.590;7.330;2023-09-30T02:18:06;15.10;99.90
62998;DHT22;55949;52.590;7.330;2023-09-30T02:19:06;15.00;99.90
62998;DHT22;55949;52.590;7.330;2023-09-30T02:20:11;15.00;99.90
62998;DHT22;55949;52.590;7.330;2023-09-30T02:21:16;15.10;99.90
62998;DHT22;55949;52.590;7.330;2023-09-30T02:22:16;15.10;99.90
62998;DHT22;55949;52.590;7.330;2023-09-30T02:23:17;15.20;99.90
62998;DHT22;55949;52.590;7.330;2023-09-30T02:24:19;15.20;99.90
62998;DHT22;55949;52.590;7.330;2023-09-30T02:25:20;14.80;99.90
62998;DHT22;55949;52.590;7.330;2023-09-30T02:26:21;14.80;99.90
62998;DHT22;55949;52.590;7.330;2023-09-30T02:27:23;14.90;99.90
62998;DHT22;55949;52.590;7.330;2023-09-30T02:28:23;14.90;99.90
62998;DHT22;55949;52.590;7.330;2023-09-30T02:29:24;15.00;99.90
62998;DHT22;55949;52.590;7.330;2023-09-30T02:30:25;15.10;99.90
62998;DHT22;55949;52.590;7.330;2023-09-30T02:31:26;15.10;99.90
62998;DHT22;55949;52.590;7.330;2023-09-30T02:32:26;15.10;99.90
62998;DHT22;55949;52.590;7.330;2023-09-30T02:33:27;15.20;99.90
62998;DHT22;55949;52.590;7.330;2023-09-30T02:34:30;15.20;99.90
62998;DHT22;55949;52.590;7.330;2023-09-30T02:35:31;15.20;99.90
62998;DHT22;55949;52.590;7.330;2023-09-30T02:36:32;15.00;99.90
62998;DHT22;55949;52.590;7.330;2023-09-30T02:37:33;15.00;99.90
62998;DHT22;55949;52.590;7.330;2023-09-30T02:38:36;15.00;99.90
62998;DHT22;55949;52.590;7.330;2023-09-30T02:39:37;15.20;99.90
62998;DHT22;55949;52.590;7.330;2023-09-30T02:40:38;15.20;99.90
62998;DHT22;55949;52.590;7.330;2023-09-30T02:41:40;15.10;99.90
62998;DHT22;55949;52.590;7.330;2023-09-30T02:42:41;15.10;99.90
62998;DHT22;55949;52.590;7.330;2023-09-30T02:43:42;15.10;99.90
62998;DHT22;55949;52.590;7.330;2023-09-30T02:44:43;15.10;99.90
62998;DHT22;55949;52.590;7.330;2023-09-30T02:45:44;15.00;99.90
62998;DHT22;55949;52.590;7.330;2023-09-30T02:46:44;15.00;99.90
62998;DHT22;55949;52.590;7.330;2023-09-30T02:47:45;14.90;99.90
62998;DHT22;55949;52.590;7.330;2023-09-30T02:48:46;15.00;99.90
62998;DHT22;55949;52.590;7.330;2023-09-30T02:49:46;15.10;99.90
62998;DHT22;55949;52.590;7.330;2023-09-30T02:50:47;15.20;99.90
62998;DHT22;55949;52.590;7.330;2023-09-30T02:51:48;15.30;99.90
62998;DHT22;55949;52.590;7.330;2023-09-30T02:52:48;15.40;99.90
62998;DHT22;55949;52.590;7.330;2023-09-30T02:53:50;15.30;99.90
62998;DHT22;55949;52.590;7.330;2023-09-30T02:54:51;15.30;99.90
62998;DHT22;55949;52.590;7.330;2023-09-30T02:55:52;15.50;99.90
62998;DHT22;55949;52.590;7.330;2023-09-30T02:56:56;15.50;99.90
62998;DHT22;55949;52.590;7.330;2023-09-30T02:57:57;15.60;99.90
62998;DHT22;55949;52.590;7.330;2023-09-30T02:58:59;15.50;99.90
62998;DHT22;55949;52.590;7.330;2023-09-30T03:00:01;15.50;99.90
62998;DHT22;55949;52.590;7.330;2023-09-30T03:01:15;15.60;99.90
62998;DHT22;55949;52.590;7.330;2023-09-30T03:02:18;15.70;99.90
62998;DHT22;55949;52.590;7.330;2023-09-30T03:03:19;15.70;99.90
62998;DHT22;55949;52.590;7.330;2023-09-30T03:04:20;15.80;99.90
62998;DHT22;55949;52.590;7.330;2023-09-30T03:05:22;15.70;99.90
62998;DHT22;55949;52.590;7.330;2023-09-30T03:06:23;15.70;99.90
62998;DHT22;55949;52.590;7.330;2023-09-30T03:07:24;15.60;99.90
62998;DHT22;55949;52.590;7.330;2023-09-30T03:08:24;15.50;99.90
62998;DHT22;55949;52.590;7.330;2023-09-30T03:09:25;15.60;99.90
62998;DHT22;55949;52.590;7.330;2023-09-30T03:10:26;15.50;99.90
62998;DHT22;55949;52.590;7.330;2023-09-30T03:11:27;15.40;99.90
62998;DHT22;55949;52.590;7.330;2023-09-30T03:12:28;15.40;99.90
62998;DHT22;55949;52.590;7.330;2023-09-30T03:13:30;15.40;99.90
62998;DHT22;55949;52.590;7.330;2023-09-30T03:14:31;15.30;99.90
62998;DHT22;55949;52.590;7.330;2023-09-30T03:15:32;15.40;99.90
62998;DHT22;55949;52.590;7.330;2023-09-30T03:16:34;15.40;99.90
62998;DHT22;55949;52.590;7.330;2023-09-30T03:17:34;15.30;99.90
62998;DHT22;55949;52.590;7.330;2023-09-30T03:18:36;15.40;99.90
62998;DHT22;55949;52.590;7.330;2023-09-30T03:19:38;15.40;99.90
62998;DHT22;55949;52.590;7.330;2023-09-30T03:20:39;15.50;99.90
62998;DHT22;55949;52.590;7.330;2023-09-30T03:21:40;15.50;99.90
62998;DHT22;55949;52.590;7.330;2023-09-30T03:22:42;15.30;99.90
62998;DHT22;55949;52.590;7.330;2023-09-30T03:23:43;15.40;99.90
62998;DHT22;55949;52.590;7.330;2023-09-30T03:24:44;15.40;99.90
62998;DHT22;55949;52.590;7.330;2023-09-30T03:25:45;15.40;99.90
62998;DHT22;55949;52.590;7.330;2023-09-30T03:26:45;15.50;99.90
62998;DHT22;55949;52.590;7.330;2023-09-30T03:27:47;15.50;99.90
62998;DHT22;55949;52.590;7.330;2023-09-30T03:28:48;15.40;99.90
62998;DHT22;55949;52.590;7.330;2023-09-30T03:29:50;15.50;99.90
62998;DHT22;55949;52.590;7.330;2023-09-30T03:30:51;15.30;99.90
62998;DHT22;55949;52.590;7.330;2023-09-30T03:31:51;15.30;99.90
62998;DHT22;55949;52.590;7.330;2023-09-30T03:32:52;15.40;99.90
62998;DHT22;55949;52.590;7.330;2023-09-30T03:33:53;15.50;99.90
62998;DHT22;55949;52.590;7.330;2023-09-30T03:34:54;15.50;99.90
62998;DHT22;55949;52.590;7.330;2023-09-30T03:35:59;15.40;99.90
62998;DHT22;55949;52.590;7.330;2023-09-30T03:37:00;15.20;99.90
62998;DHT22;55949;52.590;7.330;2023-09-30T03:38:00;15.20;99.90
62998;DHT22;55949;52.590;7.330;2023-09-30T03:39:02;15.20;99.90
62998;DHT22;55949;52.590;7.330;2023-09-30T03:40:06;15.30;99.90
62998;DHT22;55949;52.590;7.330;2023-09-30T03:41:20;15.20;99.90
62998;DHT22;55949;52.590;7.330;2023-09-30T03:42:20;15.20;99.90
62998;DHT22;55949;52.590;7.330;2023-09-30T03:43:22;15.00;99.90
62998;DHT22;55949;52.590;7.330;2023-09-30T03:44:23;15.10;99.90
62998;DHT22;55949;52.590;7.330;2023-09-30T03:45:24;15.00;99.90
62998;DHT22;55949;52.590;7.330;2023-09-30T03:46:24;15.00;99.90
62998;DHT22;55949;52.590;7.330;2023-09-30T03:47:26;15.10;99.90
62998;DHT22;55949;52.590;7.330;2023-09-30T03:48:27;15.00;99.90
62998;DHT22;55949;52.590;7.330;2023-09-30T03:49:28;15.00;99.90
62998;DHT22;55949;52.590;7.330;2023-09-30T03:50:29;15.00;99.90
62998;DHT22;55949;52.590;7.330;2023-09-30T03:51:30;15.00;99.90
62998;DHT22;55949;52.590;7.330;2023-09-30T03:52:34;15.20;99.90
62998;DHT22;55949;52.590;7.330;2023-09-30T03:53:35;15.20;99.90
62998;DHT22;55949;52.590;7.330;2023-09-30T03:54:36;15.20;99.90
62998;DHT22;55949;52.590;7.330;2023-09-30T03:55:37;15.20;99.90
62998;DHT22;55949;52.590;7.330;2023-09-30T03:56:38;15.20;99.90
62998;DHT22;55949;52.590;7.330;2023-09-30T03:57:39;15.20;99.90
62998;DHT22;55949;52.590;7.330;2023-09-30T03:58:43;15.30;99.90
62998;DHT22;55949;52.590;7.330;2023-09-30T03:59:45;15.30;99.90
62998;DHT22;55949;52.590;7.330;2023-09-30T04:00:46;15.20;99.90
62998;DHT22;55949;52.590;7.330;2023-09-30T04:01:47;15.20;99.90
62998;DHT22;55949;52.590;7.330;2023-09-30T04:02:48;15.20;99.90
62998;DHT22;55949;52.590;7.330;2023-09-30T04:03:50;15.30;99.90
62998;DHT22;55949;52.590;7.330;2023-09-30T04:04:54;15.30;99.90
62998;DHT22;55949;52.590;7.330;2023-09-30T04:05:56;15.40;99.90
62998;DHT22;55949;52.590;7.330;2023-09-30T04:06:57;15.50;99.90
62998;DHT22;55949;52.590;7.330;2023-09-30T04:07:57;15.40;99.90
62998;DHT22;55949;52.590;7.330;2023-09-30T04:08:58;15.40;99.90
62998;DHT22;55949;52.590;7.330;2023-09-30T04:09:59;15.20;99.90
62998;DHT22;55949;52.590;7.330;2023-09-30T04:11:04;15.00;99.90
62998;DHT22;55949;52.590;7.330;2023-09-30T04:12:05;15.00;99.90
62998;DHT22;55949;52.590;7.330;2023-09-30T04:13:06;14.90;99.90
62998;DHT22;55949;52.590;7.330;2023-09-30T04:14:07;14.90;99.90
62998;DHT22;55949;52.590;7.330;2023-09-30T04:15:09;14.80;99.90
62998;DHT22;55949;52.590;7.330;2023-09-30T04:16:12;14.80;99.90
62998;DHT22;55949;52.590;7.330;2023-09-30T04:17:13;14.80;99.90
62998;DHT22;55949;52.590;7.330;2023-09-30T04:18:13;14.90;99.90
62998;DHT22;55949;52.590;7.330;2023-09-30T04:19:14;14.80;99.90
62998;DHT22;55949;52.590;7.330;2023-09-30T04:20:15;14.80;99.90
62998;DHT22;55949;52.590;7.330;2023-09-30T04:21:23;14.80;99.90
62998;DHT22;55949;52.590;7.330;2023-09-30T04:22:25;14.80;99.90
62998;DHT22;55949;52.590;7.330;2023-09-30T04:23:26;14.90;99.90
62998;DHT22;55949;52.590;7.330;2023-09-30T04:24:26;14.90;99.90
62998;DHT22;55949;52.590;7.330;2023-09-30T04:25:29;14.90;99.90
62998;DHT22;55949;52.590;7.330;2023-09-30T04:26:30;15.00;99.90
62998;DHT22;55949;52.590;7.330;2023-09-30T04:27:31;15.10;99.90
62998;DHT22;55949;52.590;7.330;2023-09-30T04:28:32;15.00;99.90
62998;DHT22;55949;52.590;7.330;2023-09-30T04:29:34;15.10;99.90
62998;DHT22;55949;52.590;7.330;2023-09-30T04:30:35;15.10;99.90
62998;DHT22;55949;52.590;7.330;2023-09-30T04:31:37;15.10;99.90
62998;DHT22;55949;52.590;7.330;2023-09-30T04:32:39;15.10;99.90
62998;DHT22;55949;52.590;7.330;2023-09-30T04:33:40;15.10;99.90
62998;DHT22;55949;52.590;7.330;2023-09-30T04:34:40;15.10;99.90
62998;DHT22;55949;52.590;7.330;2023-09-30T04:35:41;15.00;99.90
62998;DHT22;55949;52.590;7.330;2023-09-30T04:36:42;14.90;99.90
62998;DHT22;55949;52.590;7.330;2023-09-30T04:37:43;15.00;99.90
62998;DHT22;55949;52.590;7.330;2023-09-30T04:38:44;15.00;99.90
62998;DHT22;55949;52.590;7.330;2023-09-30T04:39:44;15.10;99.90
62998;DHT22;55949;52.590;7.330;2023-09-30T04:40:45;15.10;99.90
62998;DHT22;55949;52.590;7.330;2023-09-30T04:41:48;15.10;99.90
62998;DHT22;55949;52.590;7.330;2023-09-30T04:42:49;15.20;99.90
62998;DHT22;55949;52.590;7.330;2023-09-30T04:43:50;15.30;99.90
62998;DHT22;55949;52.590;7.330;2023-09-30T04:44:53;15.20;99.90
62998;DHT22;55949;52.590;7.330;2023-09-30T04:45:56;15.30;99.90
62998;DHT22;55949;52.590;7.330;2023-09-30T04:46:58;15.30;99.90
62998;DHT22;55949;52.590;7.330;2023-09-30T04:48:00;15.30;99.90
62998;DHT22;55949;52.590;7.330;2023-09-30T04:49:04;15.20;99.90
62998;DHT22;55949;52.590;7.330;2023-09-30T04:50:06;15.30;99.90
62998;DHT22;55949;52.590;7.330;2023-09-30T04:51:09;15.30;99.90
62998;DHT22;55949;52.590;7.330;2023-09-30T04:52:11;15.30;99.90
62998;DHT22;55949;52.590;7.330;2023-09-30T04:53:12;15.30;99.90
62998;DHT22;55949;52.590;7.330;2023-09-30T04:54:13;15.30;99.90
62998;DHT22;55949;52.590;7.330;2023-09-30T04:55:14;15.20;99.90
62998;DHT22;55949;52.590;7.330;2023-09-30T04:56:16;15.40;99.90
62998;DHT22;55949;52.590;7.330;2023-09-30T04:57:17;15.40;99.90
62998;DHT22;55949;52.590;7.330;2023-09-30T04:58:19;15.30;99.90
62998;DHT22;55949;52.590;7.330;2023-09-30T04:59:20;15.30;99.90
62998;DHT22;55949;52.590;7.330;2023-09-30T05:00:20;15.20;99.90
62998;DHT22;55949;52.590;7.330;2023-09-30T05:01:28;15.10;99.90
62998;DHT22;55949;52.590;7.330;2023-09-30T05:02:29;15.00;99.90
62998;DHT22;55949;52.590;7.330;2023-09-30T05:03:30;14.70;99.90
62998;DHT22;55949;52.590;7.330;2023-09-30T05:04:31;14.60;99.90
62998;DHT22;55949;52.590;7.330;2023-09-30T05:05:31;14.60;99.90
62998;DHT22;55949;52.590;7.330;2023-09-30T05:06:32;14.60;99.90
62998;DHT22;55949;52.590;7.330;2023-09-30T05:07:33;14.70;99.90
62998;DHT22;55949;52.590;7.330;2023-09-30T05:08:34;14.60;99.90
62998;DHT22;55949;52.590;7.330;2023-09-30T05:09:34;14.60;99.90
62998;DHT22;55949;52.590;7.330;2023-09-30T05:10:35;14.50;99.90
62998;DHT22;55949;52.590;7.330;2023-09-30T05:11:36;14.50;99.90
62998;DHT22;55949;52.590;7.330;2023-09-30T05:12:40;14.60;99.90
62998;DHT22;55949;52.590;7.330;2023-09-30T05:13:45;14.70;99.90
62998;DHT22;55949;52.590;7.330;2023-09-30T05:14:46;14.90;99.90
62998;DHT22;55949;52.590;7.330;2023-09-30T05:15:47;14.90;99.90
62998;DHT22;55949;52.590;7.330;2023-09-30T05:16:47;15.00;99.90
62998;DHT22;55949;52.590;7.330;2023-09-30T05:17:49;15.10;99.90
62998;DHT22;55949;52.590;7.330;2023-09-30T05:18:50;15.00;99.90
62998;DHT22;55949;52.590;7.330;2023-09-30T05:19:51;14.90;99.90
62998;DHT22;55949;52.590;7.330;2023-09-30T05:20:52;14.70;99.90
62998;DHT22;55949;52.590;7.330;2023-09-30T05:21:53;14.60;99.90
62998;DHT22;55949;52.590;7.330;2023-09-30T05:22:53;14.60;99.90
62998;DHT22;55949;52.590;7.330;2023-09-30T05:23:54;14.60;99.90
62998;DHT22;55949;52.590;7.330;2023-09-30T05:24:56;14.60;99.90
62998;DHT22;55949;52.590;7.330;2023-09-30T05:25:57;14.60;99.90
62998;DHT22;55949;52.590;7.330;2023-09-30T05:26:58;14.60;99.90
62998;DHT22;55949;52.590;7.330;2023-09-30T05:27:59;14.60;99.90
62998;DHT22;55949;52.590;7.330;2023-09-30T05:28:59;14.70;99.90
62998;DHT22;55949;52.590;7.330;2023-09-30T05:30:00;14.60;99.90
62998;DHT22;55949;52.590;7.330;2023-09-30T05:31:01;14.60;99.90
62998;DHT22;55949;52.590;7.330;2023-09-30T05:32:03;14.70;99.90
62998;DHT22;55949;52.590;7.330;2023-09-30T05:33:04;14.50;99.90
62998;DHT22;55949;52.590;7.330;2023-09-30T05:34:04;14.40;99.90
62998;DHT22;55949;52.590;7.330;2023-09-30T05:35:06;14.40;99.90
62998;DHT22;55949;52.590;7.330;2023-09-30T05:36:13;14.60;99.90
62998;DHT22;55949;52.590;7.330;2023-09-30T05:37:14;14.60;99.90
62998;DHT22;55949;52.590;7.330;2023-09-30T05:38:14;14.50;99.90
62998;DHT22;55949;52.590;7.330;2023-09-30T05:39:15;14.60;99.90
62998;DHT22;55949;52.590;7.330;2023-09-30T05:40:20;14.50;99.90
62998;DHT22;55949;52.590;7.330;2023-09-30T05:41:28;14.50;99.90
62998;DHT22;55949;52.590;7.330;2023-09-30T05:42:30;14.50;99.90
62998;DHT22;55949;52.590;7.330;2023-09-30T05:43:30;14.50;99.90
62998;DHT22;55949;52.590;7.330;2023-09-30T05:44:31;14.50;99.90
62998;DHT22;55949;52.590;7.330;2023-09-30T05:45:32;14.60;99.90
62998;DHT22;55949;52.590;7.330;2023-09-30T05:46:36;14.60;99.90
62998;DHT22;55949;52.590;7.330;2023-09-30T05:47:36;14.60;99.90
62998;DHT22;55949;52.590;7.330;2023-09-30T05:48:37;14.60;99.90
62998;DHT22;55949;52.590;7.330;2023-09-30T05:49:39;14.50;99.90
62998;DHT22;55949;52.590;7.330;2023-09-30T05:50:40;14.60;99.90
62998;DHT22;55949;52.590;7.330;2023-09-30T05:51:41;14.70;99.90
62998;DHT22;55949;52.590;7.330;2023-09-30T05:52:42;14.70;99.90
62998;DHT22;55949;52.590;7.330;2023-09-30T05:53:45;14.80;99.90
62998;DHT22;55949;52.590;7.330;2023-09-30T05:54:47;14.80;99.90
62998;DHT22;55949;52.590;7.330;2023-09-30T05:55:49;14.70;99.90
62998;DHT22;55949;52.590;7.330;2023-09-30T05:56:51;14.80;99.90
62998;DHT22;55949;52.590;7.330;2023-09-30T05:57:52;14.70;99.90
62998;DHT22;55949;52.590;7.330;2023-09-30T05:58:53;14.90;99.90
62998;DHT22;55949;52.590;7.330;2023-09-30T05:59:53;14.80;99.90
62998;DHT22;55949;52.590;7.330;2023-09-30T06:00:54;14.90;99.90
62998;DHT22;55949;52.590;7.330;2023-09-30T06:01:55;14.90;99.90
62998;DHT22;55949;52.590;7.330;2023-09-30T06:02:56;14.90;99.90
62998;DHT22;55949;52.590;7.330;2023-09-30T06:03:58;14.80;99.90
62998;DHT22;55949;52.590;7.330;2023-09-30T06:04:58;14.70;99.90
62998;DHT22;55949;52.590;7.330;2023-09-30T06:05:59;14.60;99.90
62998;DHT22;55949;52.590;7.330;2023-09-30T06:07:00;14.70;99.90
62998;DHT22;55949;52.590;7.330;2023-09-30T06:08:03;14.70;99.90
62998;DHT22;55949;52.590;7.330;2023-09-30T06:09:04;14.80;99.90
62998;DHT22;55949;52.590;7.330;2023-09-30T06:10:08;14.80;99.90
62998;DHT22;55949;52.590;7.330;2023-09-30T06:11:17;14.80;99.90
62998;DHT22;55949;52.590;7.330;2023-09-30T06:12:18;14.50;99.90
62998;DHT22;55949;52.590;7.330;2023-09-30T06:13:19;14.90;99.90
62998;DHT22;55949;52.590;7.330;2023-09-30T06:14:21;14.80;99.90
62998;DHT22;55949;52.590;7.330;2023-09-30T06:15:25;14.90;99.90
62998;DHT22;55949;52.590;7.330;2023-09-30T06:16:29;14.80;99.90
62998;DHT22;55949;52.590;7.330;2023-09-30T06:17:35;14.90;99.90
62998;DHT22;55949;52.590;7.330;2023-09-30T06:18:45;15.00;99.90
62998;DHT22;55949;52.590;7.330;2023-09-30T06:19:46;15.00;99.90
62998;DHT22;55949;52.590;7.330;2023-09-30T06:20:47;15.00;99.90
62998;DHT22;55949;52.590;7.330;2023-09-30T06:21:49;15.00;99.90
62998;DHT22;55949;52.590;7.330;2023-09-30T06:22:50;15.00;99.90
62998;DHT22;55949;52.590;7.330;2023-09-30T06:23:51;14.90;99.90
62998;DHT22;55949;52.590;7.330;2023-09-30T06:24:55;15.00;99.90
62998;DHT22;55949;52.590;7.330;2023-09-30T06:25:56;14.60;99.90
62998;DHT22;55949;52.590;7.330;2023-09-30T06:26:56;14.50;99.90
62998;DHT22;55949;52.590;7.330;2023-09-30T06:27:57;14.60;99.90
62998;DHT22;55949;52.590;7.330;2023-09-30T06:28:58;14.50;99.90